This is the latest recevied weather packets stored in our database for station/object KD9NSC. If no packets are shown the sender has not sent any weather packets the latest 10 day(s).
| Time | Temp. | Humidity | Pressure | Rain* | Wind** | Luminosity | Snow |
|---|---|---|---|---|---|---|---|
| 1778007086 | 11.11° C | 57% | 1011.2 hPa | 0 mm | - | 70 W/m² | - |
| 1778006783 | 10.56° C | 58% | 1011.3 hPa | 0 mm | - | 60 W/m² | - |
| 1778006480 | 10.56° C | 56% | 1011.4 hPa | 0 mm | - | 49 W/m² | - |
| 1778006177 | 10.56° C | 61% | 1011.3 hPa | 0 mm | - | 47 W/m² | - |
| 1778005874 | 10.56° C | 61% | 1011.5 hPa | 0 mm | - | 41 W/m² | - |
| 1778005570 | 10.56° C | 59% | 1011.5 hPa | 0 mm | - | 32 W/m² | - |
| 1778005267 | 10.56° C | 60% | 1011.3 hPa | 0 mm | - | 34 W/m² | - |
| 1778004964 | 11.11° C | 64% | 1011.3 hPa | 0 mm | - | 32 W/m² | - |
| 1778004661 | 11.11° C | 63% | 1011.1 hPa | 0 mm | - | 31 W/m² | - |
| 1778004357 | 11.67° C | 55% | 1011.1 hPa | 0 mm | - | 39 W/m² | - |
| 1778004055 | 11.67° C | 59% | 1011.3 hPa | 0 mm | - | 52 W/m² | - |
| 1778003750 | 11.67° C | 61% | 1011.2 hPa | 0 mm | - | 65 W/m² | - |
| 1778003447 | 11.67° C | 62% | 1011.3 hPa | 0 mm | - | 68 W/m² | - |
| 1778003144 | 12.22° C | 52% | 1011.2 hPa | 0 mm | - | 84 W/m² | - |
| 1778002840 | 12.22° C | 55% | 1011.2 hPa | 0 mm | - | 81 W/m² | - |
| 1778002537 | 12.78° C | 58% | 1011.2 hPa | 0 mm | - | 89 W/m² | - |
| 1778002233 | 12.78° C | 60% | 1011.3 hPa | 0 mm | - | 110 W/m² | - |
| 1778001932 | 13.33° C | 62% | 1011.2 hPa | 0 mm | - | 140 W/m² | - |
| 1778001628 | 13.33° C | 61% | 1011.1 hPa | 0 mm | - | 142 W/m² | - |
| 1778001323 | 13.33° C | 61% | 1011.1 hPa | 0 mm | - | 115 W/m² | - |
| 1778001020 | 13.33° C | 61% | 1011.1 hPa | 0 mm | - | 132 W/m² | - |
| 1778000717 | 12.78° C | 60% | 1011.1 hPa | 0 mm | - | 167 W/m² | - |
| 1778000413 | 12.22° C | 51% | 1011.1 hPa | 0 mm | - | 270 W/m² | - |
| 1778000108 | 12.22° C | 64% | 1011.3 hPa | 0 mm | - | 153 W/m² | - |
| 1777999804 | 11.67° C | 67% | 1011.1 hPa | 0 mm | - | 133 W/m² | - |
* Rain latest hour (hover to see other rain measurements)
** Current wind speed in m/s (hover to see current wind gust speed)